Florissant, Missouri
Current Conditions -  °F | °C
As of 1:51 AM on Friday 24 Oct 2014 (Local Time) from KSTL Reporting Station
Scattered Clouds Scattered Clouds  
Wind Chill: 57°   Ceiling: Unl
Heat Index: 57°   Visibility: 10mi
Dew Point: 47°   Wind: 3mph
Humidity: 69%   Direction: 220°SW
Pressure: 30.08"   Gusts: NA
Location:  38.79°N, 90.32°W
Report Text: KSTL 240651Z 22003KT 10SM SCT050 14/08 A3008 RMK AO2 SLP184 T01390083
Loading
Personal Weather Stations






























Interactive Weather Map
Tropical Storm Tracking
New forecast layout! Learn more

10-Day Weather Forecast

Advertisements
Track Severe Weather on mobile